Irving, Texas
Current Conditions -  °F | °C
As of 9:53 PM on Wednesday 17 Dec 2014 (Local Time) from KDAL Reporting Station
Haze Haze  
Wind Chill: 38°   Ceiling: 700
Heat Index: 42°   Visibility: 4mi
Dew Point: 40°   Wind: 6mph
Humidity: 92%   Direction: 50°NE
Pressure: 30.18"   Gusts: NA
Location:  32.81°N, 96.95°W
Report Text: KDAL 180353Z 05005KT 4SM BR OVC007 06/04 A3018 RMK AO2 RAE50 SLP218 P0003 T00560044
Loading
Personal Weather Stations






























Interactive Weather Map New forecast layout! Learn more

10-Day Weather Forecast

Advertisements
Track Severe Weather on mobile